Espaço - Ciências - Fenômenos Naturais
Meteógrafos Informações Meteorológicas em tempo real

Aeroporto de Congonhas

Histórico do Tempo
Temperatura atual: 26 graus 78 F    Umidade relativa: 32 %
Velocidade do vento: 02 nós 3 Km/h    Direção: ND graus ND
Ajuste do altímetro ..: 1024 HPA
Visibilidade: Ótima    Tempo presente: Céu Limpo

Observação

Data Hora BRTTempo°CUmidadePressãoVentoVisib.
20/08 - 11:55   Céu Limpo 23° 50% 1026 Nordeste/7 km/h OK
20/08 - 10:55   Céu Limpo 21° 60% 1026 Este-nordeste/7 km/h OK
20/08 - 09:55   Céu Limpo 19° 63% 1026 Este-nordeste/9 km/h CAVO
20/08 - 08:55   Céu Limpo 18° 68% 1025 Este-nordeste/7 km/h CAVO
20/08 - 07:55   Céu Limpo 16° 77% 1025 Leste/14 km/h OK
20/08 - 06:55   Céu Limpo 17° 72% 1024 Este-nordeste/9 km/h OK
20/08 - 05:55   Céu Limpo 17° 67% 1023 Este-nordeste/12 km/h CAVO
20/08 - 04:55   Céu Limpo 17° 67% 1023 Este-nordeste/16 km/h CAVO
20/08 - 03:55   Céu Limpo 18° 63% 1023 Leste/14 km/h CAVO
20/08 - 02:55   Céu Limpo 18° 63% 1024 Leste/14 km/h OK
20/08 - 01:55   Céu Limpo 18° 68% 1024 Leste/9 km/h CAVO
20/08 - 00:55   Céu Limpo 18° 68% 1025 Este-nordeste/5 km/h CAVO
19/08 - 23:55   Céu Limpo 18° 68% 1025 Leste/7 km/h OK
19/08 - 22:55   Quase sem nuvens 18° 68% 1025 Leste/5 km/h 9000
19/08 - 21:55   Quase sem nuvens 18° 72% 1025 Sudeste/3 km/h 7000
19/08 - 20:55   Céu Limpo 18° 77% 1024 Sul-sudeste/5 km/h OK
19/08 - 19:55   Céu Limpo 18° 77% 1024 Sul-sudeste/5 km/h OK
19/08 - 18:55   Céu Limpo 19° 72% 1024 Sul-sudeste/3 km/h OK
19/08 - 17:55   Céu Limpo 22° 56% 1023 Sul/14 km/h OK
19/08 - 16:55   Céu Limpo 24° 36% 1023 Norte-noroeste/7 km/h OK
19/08 - 15:55   Céu Limpo 25° 34% 1022 Noroeste/12 km/h OK
19/08 - 14:55   Nuvens esparsas 24° 36% 1022 Norte-noroeste/16 km/h OK
19/08 - 13:55   Poucas nuvens esparsas 24° 44% 1023 Norte-nordeste/10 km/h OK
19/08 - 12:55   Céu Limpo 23° 50% 1024 Norte/9 km/h OK


Apolo11.com - Todos os direitos reservados - 2000 - 2018
Política de Privacidade   |     Termo de Uso e Licenciamento   |  -   Entre em Contato

"Feliz de quem atravessa a vida inteira tendo mil razões para viver" - Dom Helder Câmara